Time;durP1;ratioP1;P1;durP2;ratioP2;P2;SDS_P1;SDS_P2;PMS_P1;PMS_P2;Temp;Humidity;BMP_temperature;BMP_pressure;BME280_temperature;BME280_humidity;BME280_pressure;Samples;Min_cycle;Max_cycle;Signal;HPM_P1;HPM_P2
2021/05/20 00:02:21;;;;;;;3.50;3.17;;;11.40;99.90;;;;;;5055103;28;20024;-77
2021/05/20 00:04:47;;;;;;;8.68;3.45;;;11.40;99.90;;;;;;5073516;28;20021;-79
2021/05/20 00:07:13;;;;;;;3.90;2.85;;;11.30;99.90;;;;;;5075351;28;20103;-77
2021/05/20 00:09:38;;;;;;;10.65;2.92;;;11.30;99.90;;;;;;5074016;28;20021;-78
2021/05/20 00:12:05;;;;;;;3.47;2.92;;;11.30;99.90;;;;;;5060454;28;20082;-77
2021/05/20 00:14:31;;;;;;;3.88;3.40;;;11.30;99.90;;;;;;5059059;28;20021;-78
2021/05/20 00:16:56;;;;;;;4.93;2.85;;;11.30;99.90;;;;;;5066832;28;20035;-78
2021/05/20 00:19:23;;;;;;;3.45;2.75;;;11.30;99.90;;;;;;5076306;28;20388;-77
2021/05/20 00:21:49;;;;;;;3.70;3.40;;;11.30;99.90;;;;;;5074760;28;20057;-77
2021/05/20 00:24:15;;;;;;;5.47;3.55;;;11.20;99.90;;;;;;5053757;28;20031;-77
2021/05/20 00:26:41;;;;;;;5.97;3.08;;;11.30;99.90;;;;;;5072225;28;20033;-76
2021/05/20 00:29:07;;;;;;;10.10;3.30;;;11.40;99.90;;;;;;5071259;28;20021;-78
2021/05/20 00:31:33;;;;;;;9.88;5.85;;;11.40;99.90;;;;;;5065513;28;20109;-77
2021/05/20 00:34:00;;;;;;;4.63;2.97;;;11.40;99.90;;;;;;5049666;28;20202;-77
2021/05/20 00:36:30;;;;;;;6.40;3.80;;;11.40;99.90;;;;;;5067117;28;20012;-76
2021/05/20 00:38:57;;;;;;;4.57;4.18;;;11.40;99.90;;;;;;5050307;28;20052;-77
2021/05/20 00:41:23;;;;;;;5.57;3.40;;;11.40;99.90;;;;;;5050693;28;20385;-78
2021/05/20 00:43:49;;;;;;;7.32;4.22;;;11.40;99.90;;;;;;5048729;28;20028;-78
2021/05/20 00:48:50;;;;;;;4.18;3.17;;;11.40;99.90;;;;;;5670354;22;19928;-92
2021/05/20 00:51:16;;;;;;;6.22;3.42;;;11.40;99.90;;;;;;5063101;28;20051;-91
2021/05/20 00:53:47;;;;;;;4.65;3.10;;;11.40;99.90;;;;;;5057601;28;20049;-90
2021/05/20 00:56:14;;;;;;;7.90;3.67;;;11.40;99.90;;;;;;5042137;28;20026;-92
2021/05/20 00:58:50;;;;;;;3.25;2.90;;;11.40;99.90;;;;;;5026264;28;20050;-90
2021/05/20 01:01:19;;;;;;;3.72;2.95;;;11.30;99.90;;;;;;4938511;28;20104;-92
2021/05/20 01:03:48;;;;;;;2.83;2.30;;;11.30;99.90;;;;;;4817116;29;20048;-92
2021/05/20 01:06:15;;;;;;;5.78;2.60;;;11.30;99.90;;;;;;4564657;30;20095;-90
2021/05/20 01:08:58;;;;;;;3.90;2.50;;;11.30;99.90;;;;;;4221510;33;20131;-90
2021/05/20 01:14:18;;;;;;;4.13;3.47;;;11.30;99.90;;;;;;5139411;27;20170;-75
2021/05/20 01:16:47;;;;;;;6.72;2.95;;;11.30;99.90;;;;;;5140337;27;20459;-75
2021/05/20 01:19:13;;;;;;;3.20;3.00;;;11.30;99.90;;;;;;5125989;27;20503;-75
2021/05/20 01:21:40;;;;;;;13.95;3.90;;;11.40;99.90;;;;;;5089792;28;20037;-75
2021/05/20 01:24:07;;;;;;;4.55;4.20;;;11.40;99.90;;;;;;5039585;28;20023;-75
2021/05/20 01:26:39;;;;;;;6.72;4.55;;;11.40;99.90;;;;;;4965824;28;20527;-79
2021/05/20 01:29:07;;;;;;;4.30;3.97;;;11.50;99.90;;;;;;4899181;29;20043;-77
2021/05/20 01:31:34;;;;;;;5.40;4.35;;;11.50;99.90;;;;;;4876758;29;20063;-75
2021/05/20 01:34:00;;;;;;;4.72;4.28;;;11.50;99.90;;;;;;4885849;29;20041;-76
2021/05/20 01:39:00;;;;;;;7.32;4.35;;;11.50;99.90;;;;;;5143449;27;20130;-76
2021/05/20 01:41:27;;;;;;;8.43;4.70;;;11.50;99.90;;;;;;5144532;27;20023;-76
2021/05/20 01:43:53;;;;;;;8.43;4.60;;;11.50;99.90;;;;;;5132996;27;20028;-77
2021/05/20 01:46:19;;;;;;;6.05;4.30;;;11.50;99.90;;;;;;5129266;27;20092;-76
2021/05/20 01:48:48;;;;;;;3.58;2.65;;;11.50;99.90;;;;;;5116707;27;20372;-75
2021/05/20 01:51:17;;;;;;;5.32;2.92;;;11.40;99.90;;;;;;5062453;28;20107;-77
2021/05/20 01:53:45;;;;;;;5.85;3.60;;;11.40;99.90;;;;;;5073017;28;20043;-77
2021/05/20 01:56:13;;;;;;;4.53;2.80;;;11.40;99.90;;;;;;5032217;28;20053;-76
2021/05/20 01:58:39;;;;;;;3.20;2.58;;;11.30;99.90;;;;;;4942765;28;20063;-77
2021/05/20 02:03:37;;;;;;;3.55;2.90;;;11.20;99.90;;;;;;5137589;27;20134;-76
2021/05/20 02:06:04;;;;;;;3.08;2.80;;;11.20;99.90;;;;;;5121719;27;20047;-76
2021/05/20 02:08:34;;;;;;;4.82;2.55;;;11.20;99.90;;;;;;5074676;28;20035;-76
2021/05/20 02:11:00;;;;;;;3.53;3.22;;;11.20;99.90;;;;;;5077360;28;20122;-76
2021/05/20 02:13:27;;;;;;;4.20;2.58;;;11.20;99.90;;;;;;5074549;28;20041;-76
2021/05/20 02:15:53;;;;;;;2.63;2.42;;;11.10;99.90;;;;;;5002516;28;20495;-77
2021/05/20 02:18:19;;;;;;;4.10;3.13;;;11.10;99.90;;;;;;4951135;28;20040;-78
2021/05/20 02:20:45;;;;;;;11.38;3.10;;;11.00;99.90;;;;;;4918765;28;20024;-77
2021/05/20 02:23:11;;;;;;;4.80;4.40;;;11.00;99.90;;;;;;4907966;29;20053;-77
2021/05/20 02:28:15;;;;;;;5.60;3.15;;;10.90;99.90;;;;;;5133055;27;20133;-76
2021/05/20 02:30:40;;;;;;;5.50;2.97;;;10.90;99.90;;;;;;5131710;27;20115;-77
2021/05/20 02:33:06;;;;;;;5.15;3.45;;;10.90;99.90;;;;;;5065914;28;889718;-78
2021/05/20 02:35:32;;;;;;;4.00;3.47;;;10.90;99.90;;;;;;5083219;28;20032;-76
2021/05/20 02:37:58;;;;;;;4.70;3.40;;;10.90;99.90;;;;;;5067444;28;20028;-75
2021/05/20 02:40:24;;;;;;;4.40;3.30;;;10.90;99.90;;;;;;5067532;28;20021;-76
2021/05/20 02:42:50;;;;;;;9.15;3.15;;;10.90;99.90;;;;;;5067305;28;20020;-76
2021/05/20 02:45:22;;;;;;;6.78;3.38;;;10.80;99.90;;;;;;5061907;28;20090;-76
2021/05/20 02:47:50;;;;;;;4.38;2.72;;;10.90;99.90;;;;;;5063715;28;20021;-76
2021/05/20 02:50:17;;;;;;;6.45;3.55;;;10.90;99.90;;;;;;5067322;28;20044;-77
2021/05/20 02:52:44;;;;;;;3.92;3.10;;;10.90;99.90;;;;;;5066135;28;20024;-76
2021/05/20 02:55:14;;;;;;;3.95;2.70;;;10.90;99.90;;;;;;5064859;28;20017;-76
2021/05/20 02:57:52;;;;;;;4.65;3.05;;;10.90;99.90;;;;;;5067262;28;20103;-77
2021/05/20 03:00:18;;;;;;;4.22;3.83;;;10.90;99.90;;;;;;5069924;28;20026;-76
2021/05/20 03:02:48;;;;;;;3.55;2.78;;;10.90;99.90;;;;;;5066838;28;20032;-77
2021/05/20 03:05:14;;;;;;;6.18;2.75;;;10.90;99.90;;;;;;5064146;28;20017;-79
2021/05/20 03:07:40;;;;;;;2.70;2.50;;;10.90;99.90;;;;;;5066608;28;20100;-79
2021/05/20 03:10:07;;;;;;;5.78;2.80;;;10.90;99.90;;;;;;5065070;28;20124;-77
2021/05/20 03:12:33;;;;;;;6.05;3.58;;;10.90;99.90;;;;;;5066828;28;20441;-76
2021/05/20 03:14:59;;;;;;;9.73;3.53;;;10.80;99.90;;;;;;5066310;28;20474;-77
2021/05/20 03:17:25;;;;;;;4.95;2.63;;;10.80;99.90;;;;;;5065996;28;20027;-77
2021/05/20 03:19:51;;;;;;;3.85;3.40;;;10.80;99.90;;;;;;5066773;28;20029;-77
2021/05/20 03:22:17;;;;;;;6.82;3.47;;;10.80;99.90;;;;;;5066795;28;20432;-78
2021/05/20 03:24:43;;;;;;;3.97;3.10;;;10.80;99.90;;;;;;5064695;28;20032;-79
2021/05/20 03:27:08;;;;;;;5.90;3.00;;;10.80;99.90;;;;;;5066628;28;20029;-77
2021/05/20 03:29:34;;;;;;;3.50;3.13;;;10.70;99.90;;;;;;5066101;28;20071;-77
2021/05/20 03:32:00;;;;;;;3.10;2.88;;;10.80;99.90;;;;;;5066563;28;20052;-78
2021/05/20 03:34:26;;;;;;;3.72;3.35;;;10.70;99.90;;;;;;5058936;28;20104;-77
2021/05/20 03:36:51;;;;;;;5.30;3.65;;;10.70;99.90;;;;;;5045908;28;20040;-79
2021/05/20 03:39:17;;;;;;;5.15;4.18;;;10.60;99.90;;;;;;5034869;28;20030;-77
2021/05/20 03:41:43;;;;;;;5.18;4.38;;;10.60;99.90;;;;;;5033313;28;20025;-77
2021/05/20 03:44:09;;;;;;;3.42;3.13;;;10.60;99.90;;;;;;5035116;28;20062;-77
2021/05/20 03:46:34;;;;;;;19.17;4.22;;;10.70;99.90;;;;;;5032780;28;20490;-78
2021/05/20 03:49:00;;;;;;;6.38;4.03;;;10.70;99.90;;;;;;5032422;28;20427;-78
2021/05/20 03:51:26;;;;;;;4.55;3.67;;;10.70;99.90;;;;;;5031580;28;20020;-77
2021/05/20 03:53:52;;;;;;;5.95;4.97;;;10.80;99.90;;;;;;5029010;28;20360;-77
2021/05/20 03:56:18;;;;;;;5.13;4.38;;;10.70;99.90;;;;;;5032545;28;20087;-76
2021/05/20 03:58:43;;;;;;;4.97;4.57;;;10.80;99.90;;;;;;5032765;28;20080;-78
2021/05/20 04:01:09;;;;;;;9.30;5.05;;;10.80;99.90;;;;;;5032679;28;20119;-77
2021/05/20 04:03:35;;;;;;;7.72;4.97;;;10.80;99.90;;;;;;5028458;28;20025;-77
2021/05/20 04:06:03;;;;;;;8.95;4.97;;;10.80;99.90;;;;;;5033160;28;20056;-76
2021/05/20 04:08:28;;;;;;;7.50;5.22;;;10.80;99.90;;;;;;5031576;28;20033;-76
2021/05/20 04:10:55;;;;;;;6.35;4.65;;;10.80;99.90;;;;;;5031216;28;20029;-77
2021/05/20 04:13:35;;;;;;;8.52;4.10;;;10.80;99.90;;;;;;5032586;28;20083;-77
2021/05/20 04:16:02;;;;;;;5.85;3.95;;;10.70;99.90;;;;;;5030102;28;20021;-78
2021/05/20 04:18:28;;;;;;;4.15;3.75;;;10.70;99.90;;;;;;5032445;28;20025;-78
2021/05/20 04:20:54;;;;;;;6.93;5.13;;;10.70;99.90;;;;;;5032801;28;20024;-77
2021/05/20 04:23:20;;;;;;;11.20;5.30;;;10.70;99.90;;;;;;5032418;28;20511;-78
2021/05/20 04:25:47;;;;;;;5.70;4.80;;;10.70;99.90;;;;;;5032369;28;20032;-77
2021/05/20 04:28:14;;;;;;;13.43;6.30;;;10.80;99.90;;;;;;5025876;28;20039;-75
2021/05/20 04:30:40;;;;;;;9.18;6.22;;;10.90;99.90;;;;;;5031394;28;20621;-76
2021/05/20 04:33:06;;;;;;;8.75;5.75;;;10.80;99.90;;;;;;5034482;28;20063;-77
2021/05/20 04:35:33;;;;;;;5.68;5.18;;;10.80;99.90;;;;;;5040586;28;20029;-77
2021/05/20 04:37:59;;;;;;;7.28;5.72;;;10.90;99.90;;;;;;5047604;28;20032;-78
2021/05/20 04:40:25;;;;;;;6.85;5.70;;;10.90;99.90;;;;;;5038198;28;20025;-77
2021/05/20 04:42:51;;;;;;;6.32;5.53;;;11.00;99.90;;;;;;5044938;28;20024;-80
2021/05/20 04:45:17;;;;;;;7.05;5.53;;;11.10;99.90;;;;;;5039639;28;20482;-77
2021/05/20 04:47:44;;;;;;;10.65;5.35;;;11.20;99.90;;;;;;5014803;28;20032;-77
2021/05/20 04:50:11;;;;;;;6.88;6.18;;;11.30;99.90;;;;;;5046741;28;20029;-76
2021/05/20 04:52:37;;;;;;;6.35;5.75;;;11.30;99.90;;;;;;5024933;28;20025;-77
2021/05/20 04:55:04;;;;;;;9.10;6.82;;;11.40;99.90;;;;;;5021333;28;20434;-77
2021/05/20 04:57:29;;;;;;;9.55;8.07;;;11.50;99.90;;;;;;5037511;28;20033;-77
2021/05/20 04:59:55;;;;;;;6.90;6.20;;;11.60;99.90;;;;;;5036156;28;20022;-76
2021/05/20 05:02:21;;;;;;;13.20;7.32;;;11.80;99.90;;;;;;5034722;28;20498;-77
2021/05/20 05:04:47;;;;;;;9.85;7.15;;;12.10;99.90;;;;;;5040818;28;20059;-77
2021/05/20 05:07:12;;;;;;;9.90;6.85;;;12.30;99.90;;;;;;5033340;28;20021;-77
2021/05/20 05:09:38;;;;;;;10.38;7.10;;;12.40;99.90;;;;;;5042430;28;20068;-76
2021/05/20 05:12:04;;;;;;;10.38;7.03;;;12.50;99.90;;;;;;5028915;28;20021;-79
2021/05/20 05:14:30;;;;;;;7.32;5.55;;;12.70;99.90;;;;;;5032116;28;20052;-79
2021/05/20 05:16:56;;;;;;;7.20;5.47;;;12.80;99.90;;;;;;5033919;28;20053;-78
2021/05/20 05:19:21;;;;;;;8.48;6.85;;;13.00;99.90;;;;;;5024444;28;20021;-78
2021/05/20 05:21:47;;;;;;;11.70;8.57;;;13.00;99.90;;;;;;5044661;28;20482;-77
2021/05/20 05:24:13;;;;;;;18.05;10.13;;;13.00;99.90;;;;;;5037163;28;20020;-78
2021/05/20 05:26:39;;;;;;;12.60;8.57;;;13.10;99.90;;;;;;5035957;28;20021;-69
2021/05/20 05:29:05;;;;;;;20.42;9.70;;;13.00;99.90;;;;;;5036842;28;20091;-67
2021/05/20 05:31:32;;;;;;;16.23;8.45;;;13.00;99.90;;;;;;5041299;28;20025;-66
2021/05/20 05:33:58;;;;;;;14.93;9.40;;;13.10;99.90;;;;;;5038081;28;20070;-65
2021/05/20 05:36:25;;;;;;;16.80;9.27;;;13.10;99.90;;;;;;5030786;28;20030;-68
2021/05/20 05:38:52;;;;;;;15.32;8.98;;;13.20;99.90;;;;;;5028748;28;20119;-67
2021/05/20 05:41:18;;;;;;;11.80;7.65;;;13.20;99.90;;;;;;5028460;28;20026;-69
2021/05/20 05:43:44;;;;;;;9.55;6.82;;;13.40;99.90;;;;;;5027883;28;20029;-69
2021/05/20 05:46:09;;;;;;;13.75;8.68;;;13.50;99.90;;;;;;5029576;28;20037;-69
2021/05/20 05:48:35;;;;;;;14.05;8.93;;;13.60;99.90;;;;;;5024434;28;20025;-67
2021/05/20 05:51:03;;;;;;;16.13;8.82;;;13.70;99.90;;;;;;5030643;28;20021;-68
2021/05/20 05:53:30;;;;;;;13.85;10.25;;;13.80;99.90;;;;;;5027495;28;20030;-69
2021/05/20 05:55:57;;;;;;;16.65;8.55;;;13.90;99.90;;;;;;5029442;28;20029;-67
2021/05/20 05:58:23;;;;;;;12.90;8.43;;;14.10;99.90;;;;;;5026939;28;20104;-71
2021/05/20 06:00:49;;;;;;;10.25;7.45;;;14.10;99.90;;;;;;5026578;28;20076;-71
2021/05/20 06:03:15;;;;;;;9.35;6.80;;;14.20;99.90;;;;;;5028426;28;20033;-67
2021/05/20 06:05:41;;;;;;;9.38;5.78;;;14.30;99.90;;;;;;5021525;28;20395;-69
2021/05/20 06:08:07;;;;;;;11.13;4.78;;;14.40;99.90;;;;;;5023861;28;20018;-67
2021/05/20 06:10:33;;;;;;;5.80;5.25;;;14.90;99.90;;;;;;5039305;28;20100;-69
2021/05/20 06:13:00;;;;;;;19.77;6.28;;;15.00;99.90;;;;;;5029477;28;20036;-70
2021/05/20 06:15:26;;;;;;;5.63;5.13;;;15.10;99.90;;;;;;5029175;28;20391;-70
2021/05/20 06:17:51;;;;;;;5.45;4.45;;;15.10;99.90;;;;;;5028103;28;20049;-68
2021/05/20 06:20:17;;;;;;;7.70;4.50;;;15.20;99.90;;;;;;5029490;28;20108;-67
2021/05/20 06:22:43;;;;;;;7.85;4.45;;;15.20;99.90;;;;;;5028499;28;20060;-68
2021/05/20 06:25:09;;;;;;;11.20;5.40;;;15.20;99.90;;;;;;5030011;28;20022;-70
2021/05/20 06:27:35;;;;;;;9.43;5.07;;;15.30;99.90;;;;;;5024800;28;20112;-68
2021/05/20 06:30:01;;;;;;;8.25;5.97;;;15.40;99.90;;;;;;5029265;28;20446;-69
2021/05/20 06:32:28;;;;;;;10.32;6.53;;;15.50;99.90;;;;;;5025206;28;20104;-67
2021/05/20 06:34:54;;;;;;;7.38;5.93;;;15.60;99.90;;;;;;5028735;28;20021;-66
2021/05/20 06:37:19;;;;;;;9.65;7.07;;;15.50;99.90;;;;;;5029210;28;20044;-69
2021/05/20 06:39:45;;;;;;;13.52;8.05;;;15.70;99.90;;;;;;5028093;28;20037;-68
2021/05/20 06:42:11;;;;;;;11.20;6.45;;;15.70;99.90;;;;;;5028551;28;20080;-68
2021/05/20 06:44:38;;;;;;;8.77;6.38;;;15.70;99.90;;;;;;5029657;28;20395;-69
2021/05/20 06:47:04;;;;;;;12.30;7.25;;;15.80;99.90;;;;;;5030308;28;20033;-68
2021/05/20 06:49:30;;;;;;;12.88;7.75;;;15.80;99.90;;;;;;5028845;28;20036;-68
2021/05/20 06:51:56;;;;;;;15.05;8.43;;;15.70;99.90;;;;;;5029422;28;20021;-68
2021/05/20 06:54:22;;;;;;;14.10;9.52;;;15.80;99.90;;;;;;5029187;28;20438;-68
2021/05/20 06:56:55;;;;;;;15.30;8.00;;;15.80;99.90;;;;;;5023547;28;20034;-67
2021/05/20 07:02:05;;;;;;;11.45;9.00;;;15.70;99.90;;;;;;5028804;28;20041;-69
2021/05/20 07:04:31;;;;;;;18.23;10.85;;;15.70;99.90;;;;;;5029177;28;20037;-68
2021/05/20 07:07:01;;;;;;;17.13;12.75;;;15.70;99.90;;;;;;5028963;28;20033;-67
2021/05/20 07:09:28;;;;;;;14.98;11.25;;;15.60;99.90;;;;;;5029750;28;20021;-67
2021/05/20 07:11:55;;;;;;;12.13;10.85;;;15.60;99.90;;;;;;5030113;28;20057;-68
2021/05/20 07:14:21;;;;;;;15.82;10.30;;;15.60;99.90;;;;;;5032605;28;20025;-68
2021/05/20 07:16:47;;;;;;;15.88;10.02;;;15.50;99.90;;;;;;5033043;28;20040;-67
2021/05/20 07:19:13;;;;;;;11.13;10.05;;;15.40;99.90;;;;;;5033746;28;20079;-67
2021/05/20 07:21:38;;;;;;;13.80;9.65;;;15.40;99.90;;;;;;5034114;28;20129;-68
2021/05/20 07:24:05;;;;;;;12.23;9.70;;;15.40;99.90;;;;;;5032531;28;20021;-68
2021/05/20 07:26:30;;;;;;;11.02;9.88;;;15.50;99.90;;;;;;5033295;28;20479;-68
2021/05/20 07:28:56;;;;;;;10.57;9.43;;;15.60;99.90;;;;;;5034034;28;20091;-68
2021/05/20 07:31:22;;;;;;;10.00;8.95;;;15.60;99.90;;;;;;5033705;28;20080;-68
2021/05/20 07:33:47;;;;;;;10.48;8.55;;;15.70;99.90;;;;;;5039841;28;20033;-67
2021/05/20 07:36:13;;;;;;;12.95;10.73;;;15.70;99.90;;;;;;5048509;28;20029;-68
2021/05/20 07:38:39;;;;;;;12.77;9.63;;;15.70;99.90;;;;;;5032464;28;20388;-68
2021/05/20 07:41:06;;;;;;;10.50;9.27;;;15.70;99.90;;;;;;5033296;28;20044;-68
2021/05/20 07:43:32;;;;;;;16.67;9.57;;;15.70;99.90;;;;;;5033241;28;20037;-66
2021/05/20 07:45:58;;;;;;;13.05;10.07;;;15.80;99.90;;;;;;5033929;28;20061;-68
2021/05/20 07:48:24;;;;;;;12.65;9.98;;;15.90;99.90;;;;;;5032994;28;20041;-70
2021/05/20 07:50:50;;;;;;;12.20;9.88;;;15.90;99.90;;;;;;5044797;28;20029;-68
2021/05/20 07:53:15;;;;;;;17.92;10.82;;;15.90;99.90;;;;;;5039098;28;20064;-69
2021/05/20 07:55:41;;;;;;;12.50;8.88;;;15.90;99.90;;;;;;5034601;28;20037;-68
2021/05/20 07:58:07;;;;;;;14.98;9.07;;;15.80;99.90;;;;;;5033027;28;20032;-68
2021/05/20 08:00:34;;;;;;;13.93;9.07;;;15.80;99.90;;;;;;5033008;28;20017;-68
2021/05/20 08:13:03;;;;;;;9.43;8.52;;;16.00;99.90;;;;;;5032886;28;20018;-70
2021/05/20 08:15:29;;;;;;;14.45;8.68;;;16.00;99.90;;;;;;5033007;28;20115;-68
2021/05/20 08:17:55;;;;;;;14.90;8.93;;;16.00;99.90;;;;;;5022081;28;20386;-67
2021/05/20 08:20:21;;;;;;;11.75;8.20;;;15.90;99.90;;;;;;5043167;28;20394;-69
2021/05/20 08:22:47;;;;;;;9.15;7.35;;;16.00;99.90;;;;;;5041038;28;20021;-68
2021/05/20 08:25:12;;;;;;;8.82;6.22;;;16.00;99.90;;;;;;5042790;28;20102;-69
2021/05/20 08:27:38;;;;;;;11.25;5.28;;;16.00;99.90;;;;;;5021102;28;20429;-71
2021/05/20 08:30:06;;;;;;;8.60;7.18;;;16.00;99.90;;;;;;5041957;28;20025;-69
2021/05/20 08:32:32;;;;;;;7.55;6.13;;;16.00;99.90;;;;;;5040947;28;20017;-70
2021/05/20 08:34:57;;;;;;;8.63;7.78;;;16.20;99.90;;;;;;5035494;28;20028;-69
2021/05/20 08:37:23;;;;;;;10.60;7.90;;;16.20;99.90;;;;;;5040891;28;20514;-68
2021/05/20 08:39:49;;;;;;;11.48;5.97;;;16.20;99.90;;;;;;5039574;28;20056;-68
2021/05/20 08:42:15;;;;;;;6.03;5.47;;;16.30;99.90;;;;;;5039499;28;20541;-71
2021/05/20 08:44:40;;;;;;;7.82;5.70;;;16.20;99.90;;;;;;5041622;28;20092;-69
2021/05/20 08:47:07;;;;;;;5.90;5.40;;;16.20;99.90;;;;;;5042449;28;20032;-68
2021/05/20 08:49:32;;;;;;;6.43;5.88;;;16.10;99.90;;;;;;5040436;28;20022;-69
2021/05/20 08:51:59;;;;;;;5.80;4.60;;;16.10;99.90;;;;;;5043278;28;20036;-69
2021/05/20 08:54:26;;;;;;;8.18;5.85;;;16.10;99.90;;;;;;5043578;28;20087;-69
2021/05/20 08:56:52;;;;;;;9.38;5.80;;;16.10;99.90;;;;;;5038989;28;20477;-69
2021/05/20 08:59:19;;;;;;;16.45;7.50;;;16.20;99.90;;;;;;5016233;28;20057;-69
2021/05/20 09:01:46;;;;;;;13.07;7.25;;;16.20;99.90;;;;;;5014276;28;20387;-70
2021/05/20 09:04:12;;;;;;;10.23;5.38;;;16.20;99.90;;;;;;5033108;28;20074;-68
2021/05/20 09:07:22;;;;;;;13.00;5.68;;;16.20;99.90;;;;;;5031722;28;20117;-69
2021/05/20 09:09:39;;;;;;;7.10;5.00;;;16.40;99.90;;;;;;5028633;28;20037;-69
2021/05/20 09:12:07;;;;;;;5.25;4.75;;;16.30;99.90;;;;;;5013905;28;20025;-70
2021/05/20 09:14:42;;;;;;;8.95;4.63;;;16.30;99.90;;;;;;5034535;28;20021;-68
2021/05/20 09:17:18;;;;;;;5.00;4.50;;;16.20;99.90;;;;;;5032627;28;20036;-69
2021/05/20 09:19:55;;;;;;;4.97;3.70;;;16.30;99.90;;;;;;5031245;28;20040;-68
2021/05/20 09:22:21;;;;;;;6.85;4.40;;;16.40;99.90;;;;;;5031467;28;20084;-68
2021/05/20 09:24:56;;;;;;;8.27;4.20;;;16.40;99.90;;;;;;5013986;28;20364;-69
2021/05/20 09:27:31;;;;;;;4.47;2.53;;;16.50;99.90;;;;;;5043066;28;20021;-69
2021/05/20 09:30:16;;;;;;;3.13;1.98;;;16.60;99.90;;;;;;5014967;28;20018;-68
2021/05/20 09:32:47;;;;;;;2.83;2.47;;;16.60;99.90;;;;;;5014038;28;20025;-68
2021/05/20 09:35:14;;;;;;;2.43;2.23;;;16.50;99.90;;;;;;5031456;28;20025;-69
2021/05/20 09:37:48;;;;;;;4.55;1.67;;;16.50;99.90;;;;;;5029563;28;20276;-68
2021/05/20 09:40:15;;;;;;;2.92;1.95;;;16.60;99.90;;;;;;5030932;28;20129;-71
2021/05/20 09:42:41;;;;;;;2.22;1.70;;;16.60;99.90;;;;;;5030676;28;20029;-70
2021/05/20 09:45:09;;;;;;;3.70;2.08;;;16.60;99.90;;;;;;5031077;28;20479;-68
2021/05/20 09:47:35;;;;;;;2.65;2.13;;;16.80;99.90;;;;;;5030307;28;20033;-69
2021/05/20 09:50:06;;;;;;;7.47;2.15;;;16.80;99.90;;;;;;5031346;28;20025;-69
2021/05/20 09:52:32;;;;;;;7.65;2.83;;;16.90;99.90;;;;;;5032151;28;20352;-69
2021/05/20 09:54:58;;;;;;;3.90;2.15;;;16.80;99.90;;;;;;5031902;28;20228;-70
2021/05/20 09:57:24;;;;;;;7.72;2.67;;;16.80;99.90;;;;;;5030309;28;20037;-70
2021/05/20 10:00:06;;;;;;;4.30;2.90;;;16.90;99.90;;;;;;5030875;28;20104;-69
2021/05/20 10:02:32;;;;;;;;;;;16.80;99.90;;;;;;5031296;28;20434;-70
2021/05/20 10:05:17;;;;;;;4.70;3.00;;;16.90;99.90;;;;;;5030877;28;20063;-71
2021/05/20 10:07:43;;;;;;;4.57;3.25;;;17.00;99.90;;;;;;5033340;28;20033;-70
2021/05/20 10:10:09;;;;;;;3.97;3.50;;;17.20;99.90;;;;;;5031806;28;20017;-69
2021/05/20 10:12:39;;;;;;;7.10;3.55;;;17.20;99.90;;;;;;5027227;28;20070;-70
2021/05/20 10:15:09;;;;;;;3.42;3.08;;;17.10;99.90;;;;;;5017622;28;20036;-70
2021/05/20 10:17:35;;;;;;;2.83;2.33;;;17.10;99.90;;;;;;5029081;28;20032;-70
2021/05/20 10:20:05;;;;;;;3.95;2.78;;;17.10;99.90;;;;;;5029838;28;20029;-69
2021/05/20 10:22:32;;;;;;;2.58;2.38;;;17.10;99.90;;;;;;5030428;28;20649;-69
2021/05/20 10:24:59;;;;;;;4.07;1.77;;;17.10;99.90;;;;;;5030803;28;20414;-69
2021/05/20 10:27:25;;;;;;;1.73;1.05;;;17.00;99.90;;;;;;5030520;28;20057;-70
2021/05/20 10:29:52;;;;;;;1.95;1.20;;;17.10;99.90;;;;;;5030030;28;20030;-72
2021/05/20 10:32:18;;;;;;;4.90;1.45;;;17.10;99.90;;;;;;5012531;28;20034;-70
2021/05/20 10:35:14;;;;;;;4.93;1.33;;;17.10;99.90;;;;;;5022667;28;20094;-71
2021/05/20 10:37:41;;;;;;;1.95;1.20;;;17.00;99.90;;;;;;5029576;28;20038;-68
2021/05/20 10:40:25;;;;;;;1.92;1.15;;;17.00;99.90;;;;;;5030419;28;20517;-70
2021/05/20 10:43:06;;;;;;;2.75;1.55;;;17.10;99.90;;;;;;5033235;28;20029;-72
2021/05/20 10:45:33;;;;;;;3.72;1.20;;;17.10;99.90;;;;;;5032483;28;20536;-70
2021/05/20 10:48:05;;;;;;;2.05;1.55;;;17.10;99.90;;;;;;5032000;28;20038;-71
2021/05/20 10:50:56;;;;;;;1.98;1.33;;;17.00;99.90;;;;;;5036086;28;20025;-70
2021/05/20 10:53:40;;;;;;;1.52;0.98;;;17.00;99.90;;;;;;5035154;28;20048;-70
2021/05/20 10:56:28;;;;;;;4.20;1.55;;;17.20;99.90;;;;;;5032889;28;20030;-70
2021/05/20 10:58:54;;;;;;;3.80;1.67;;;17.20;99.90;;;;;;5032866;28;20025;-70
2021/05/20 11:01:20;;;;;;;1.73;1.63;;;17.20;99.90;;;;;;5034092;28;20505;-69
2021/05/20 11:03:59;;;;;;;1.88;1.13;;;17.10;99.90;;;;;;5034133;28;20022;-69
2021/05/20 11:06:43;;;;;;;6.30;1.70;;;17.10;99.90;;;;;;5033564;28;20036;-70
2021/05/20 11:09:16;;;;;;;1.63;1.40;;;17.00;99.90;;;;;;5033431;28;20071;-69
2021/05/20 11:11:42;;;;;;;5.10;2.00;;;17.10;99.90;;;;;;5035277;28;20048;-69
2021/05/20 11:14:13;;;;;;;4.38;2.42;;;17.20;99.90;;;;;;5033653;28;20025;-70
2021/05/20 11:16:46;;;;;;;10.23;1.92;;;17.30;99.90;;;;;;5029155;28;20426;-70
2021/05/20 11:22:12;;;;;;;1.35;1.20;;;17.40;99.90;;;;;;5034958;28;20121;-70
2021/05/20 11:24:41;;;;;;;2.38;1.55;;;17.50;99.90;;;;;;5032948;28;20195;-72
2021/05/20 11:27:18;;;;;;;6.13;1.38;;;17.40;99.90;;;;;;5033554;28;20390;-71
2021/05/20 11:29:49;;;;;;;2.65;1.67;;;17.50;99.90;;;;;;5033793;28;20029;-69
2021/05/20 11:32:28;;;;;;;4.35;1.60;;;17.50;99.90;;;;;;5032964;28;20112;-70
2021/05/20 11:37:33;;;;;;;2.83;1.65;;;17.60;99.90;;;;;;5033673;28;20033;-70
2021/05/20 11:40:01;;;;;;;4.22;2.00;;;17.50;99.90;;;;;;5033387;28;20124;-69
2021/05/20 11:42:29;;;;;;;4.93;1.80;;;17.60;99.90;;;;;;5033071;28;20125;-69
2021/05/20 11:44:55;;;;;;;2.45;1.92;;;17.50;99.90;;;;;;5032895;28;20025;-71
2021/05/20 11:47:22;;;;;;;10.68;2.10;;;17.50;99.90;;;;;;5033767;28;20109;-69
2021/05/20 11:49:49;;;;;;;2.13;2.03;;;17.50;99.90;;;;;;5032548;28;20087;-69
2021/05/20 11:52:17;;;;;;;1.40;1.30;;;17.70;99.90;;;;;;5016783;28;20419;-69
2021/05/20 11:54:49;;;;;;;4.72;1.73;;;17.90;99.90;;;;;;5033524;28;20083;-69
2021/05/20 11:57:17;;;;;;;5.50;1.80;;;18.10;99.90;;;;;;5033064;28;20026;-70
2021/05/20 12:00:00;;;;;;;4.25;1.92;;;18.20;99.90;;;;;;5032104;28;20029;-70
2021/05/20 12:02:33;;;;;;;9.20;2.53;;;18.30;99.90;;;;;;5033007;28;20040;-69
2021/05/20 12:05:08;;;;;;;4.88;2.50;;;18.30;99.90;;;;;;5032221;28;20417;-69
2021/05/20 12:07:39;;;;;;;6.97;2.35;;;18.40;99.90;;;;;;5032181;28;20040;-69
2021/05/20 12:10:21;;;;;;;2.60;2.05;;;18.50;99.90;;;;;;5032910;28;20025;-69
2021/05/20 12:12:54;;;;;;;2.47;2.08;;;18.40;99.90;;;;;;5032357;28;20034;-71
2021/05/20 12:15:22;;;;;;;4.05;1.95;;;18.50;99.90;;;;;;5032698;28;20104;-70
2021/05/20 12:17:48;;;;;;;2.22;1.80;;;18.60;99.90;;;;;;5032000;28;20029;-68
2021/05/20 12:20:17;;;;;;;2.35;2.13;;;18.70;99.90;;;;;;5031240;28;20048;-69
2021/05/20 12:22:44;;;;;;;8.57;1.63;;;18.60;99.90;;;;;;5026448;28;20026;-70
2021/05/20 12:25:12;;;;;;;3.50;1.42;;;18.60;99.90;;;;;;5030607;28;20112;-70
2021/05/20 12:27:38;;;;;;;5.93;1.55;;;18.50;99.90;;;;;;5031265;28;20099;-71
2021/05/20 12:30:09;;;;;;;2.75;1.58;;;18.60;99.90;;;;;;5032343;28;20471;-67
2021/05/20 12:33:03;;;;;;;3.08;1.67;;;18.70;99.90;;;;;;5032154;28;20032;-70
2021/05/20 12:35:38;;;;;;;1.52;1.42;;;18.80;99.90;;;;;;5026847;28;20041;-70
2021/05/20 12:38:09;;;;;;;4.82;1.50;;;18.90;99.90;;;;;;5031600;28;20034;-67
2021/05/20 12:40:38;;;;;;;2.83;1.60;;;19.00;99.90;;;;;;5032137;28;20041;-69
2021/05/20 12:43:14;;;;;;;2.75;1.90;;;18.90;99.90;;;;;;5031884;28;20021;-69
2021/05/20 12:45:51;;;;;;;5.60;1.73;;;18.90;99.90;;;;;;5030608;28;20029;-70
2021/05/20 12:48:20;;;;;;;4.10;1.20;;;18.80;99.90;;;;;;5032046;28;20025;-69
2021/05/20 12:50:46;;;;;;;6.13;1.60;;;19.00;99.90;;;;;;5014217;28;20026;-71
2021/05/20 12:53:12;;;;;;;3.78;1.60;;;19.00;99.90;;;;;;5031598;28;20041;-70
2021/05/20 12:55:42;;;;;;;1.48;1.20;;;19.20;99.90;;;;;;5031688;28;20387;-70
2021/05/20 12:58:09;;;;;;;2.10;1.90;;;19.60;99.90;;;;;;5013581;28;20040;-71
2021/05/20 13:00:55;;;;;;;1.70;1.35;;;19.70;99.90;;;;;;5031475;28;20025;-69
2021/05/20 13:03:22;;;;;;;3.58;1.38;;;19.60;99.90;;;;;;5031755;28;20021;-70
2021/05/20 13:05:49;;;;;;;4.20;1.15;;;19.80;99.90;;;;;;5031590;28;20036;-69
2021/05/20 13:08:30;;;;;;;3.22;1.50;;;19.80;99.90;;;;;;5030155;28;20025;-69
2021/05/20 13:10:56;;;;;;;1.33;1.02;;;19.60;99.90;;;;;;5029995;28;20033;-68
2021/05/20 13:13:27;;;;;;;1.95;1.20;;;19.50;99.90;;;;;;5031484;28;20092;-71
2021/05/20 13:16:05;;;;;;;1.15;1.05;;;19.60;99.90;;;;;;5030950;28;20383;-70
2021/05/20 13:23:40;;;;;;;7.00;1.42;;;20.00;99.90;;;;;;5031447;28;20030;-70
2021/05/20 13:26:06;;;;;;;2.63;1.02;;;20.00;99.90;;;;;;5028704;28;20340;-69